Time;durP1;ratioP1;P1;durP2;ratioP2;P2;SDS_P1;SDS_P2;PMS_P1;PMS_P2;Temp;Humidity;BMP_temperature;BMP_pressure;BME280_temperature;BME280_humidity;BME280_pressure;Samples;Min_cycle;Max_cycle;Signal;HPM_P1;HPM_P2
2023/07/22 00:00:40;;;;;;;13.45;5.82;;;;;;;27.29;43.85;97461.28;10284615;28;20044;-51
2023/07/22 00:05:40;;;;;;;11.52;5.65;;;;;;;27.12;45.50;97498.00;10285529;28;20117;-48
2023/07/22 00:10:43;;;;;;;10.45;5.28;;;;;;;26.70;48.62;97494.75;10285132;28;20057;-51
2023/07/22 00:15:41;;;;;;;13.38;6.10;;;;;;;26.46;50.17;97478.69;10283114;28;20113;-52
2023/07/22 00:20:40;;;;;;;13.52;6.28;;;;;;;26.49;50.20;97482.97;10283822;28;20104;-51
2023/07/22 00:25:39;;;;;;;13.70;5.75;;;;;;;26.49;50.53;97497.13;10284347;28;20072;-51
2023/07/22 00:30:38;;;;;;;11.55;5.72;;;;;;;26.41;50.94;97470.19;10283301;28;20081;-51
2023/07/22 00:35:37;;;;;;;9.20;5.68;;;;;;;26.31;51.34;97490.41;10283273;28;20039;-49
2023/07/22 00:40:37;;;;;;;12.63;6.63;;;;;;;26.18;52.26;97508.97;10282402;28;20496;-50
2023/07/22 00:45:36;;;;;;;13.55;6.63;;;;;;;26.01;52.46;97503.97;10283705;28;20129;-52
2023/07/22 00:50:36;;;;;;;11.88;5.68;;;;;;;25.44;55.36;97527.16;10280913;28;20061;-49
2023/07/22 00:55:39;;;;;;;10.52;5.38;;;;;;;24.74;57.77;97516.53;10282016;28;20109;-50
2023/07/22 01:00:38;;;;;;;11.55;5.80;;;;;;;24.49;59.78;97565.78;10284114;28;20077;-51
2023/07/22 01:05:37;;;;;;;10.95;4.57;;;;;;;24.29;61.01;97566.16;10279125;28;20125;-51
2023/07/22 01:10:36;;;;;;;11.20;5.20;;;;;;;24.31;61.10;97572.22;10283107;28;20065;-51
2023/07/22 01:15:37;;;;;;;11.48;5.40;;;;;;;24.40;60.42;97557.53;10280356;28;20124;-52
2023/07/22 01:20:37;;;;;;;13.40;5.78;;;;;;;24.41;60.36;97552.16;10282652;28;20129;-50
2023/07/22 01:25:35;;;;;;;10.52;6.03;;;;;;;24.38;60.41;97557.66;10280972;28;20109;-51
2023/07/22 01:30:34;;;;;;;11.32;5.50;;;;;;;24.51;60.33;97559.53;10279564;28;20045;-49
2023/07/22 01:35:33;;;;;;;15.43;5.63;;;;;;;24.47;60.16;97541.19;10280841;28;20116;-51
2023/07/22 01:40:32;;;;;;;13.50;5.72;;;;;;;24.39;60.29;97548.72;10280321;28;20026;-52
2023/07/22 01:45:32;;;;;;;9.18;4.40;;;;;;;24.34;60.19;97512.84;10280490;28;20403;-51
2023/07/22 01:50:31;;;;;;;9.90;4.75;;;;;;;24.32;60.15;97504.13;10280901;28;20069;-52
2023/07/22 01:55:30;;;;;;;11.77;5.88;;;;;;;24.23;60.17;97479.84;10284952;28;20096;-54
2023/07/22 02:00:29;;;;;;;13.50;5.47;;;;;;;24.29;60.53;97481.28;10281212;28;20113;-53
2023/07/22 02:05:29;;;;;;;9.18;5.40;;;;;;;24.19;61.50;97482.78;10279580;28;20160;-50
2023/07/22 02:10:28;;;;;;;10.63;6.30;;;;;;;24.02;62.72;97497.88;10280771;28;20061;-53
2023/07/22 02:15:27;;;;;;;12.32;6.22;;;;;;;23.87;63.01;97493.50;10278063;28;20109;-52
2023/07/22 02:20:28;;;;;;;20.55;7.60;;;;;;;23.73;63.24;97493.44;10280608;28;20070;-50
2023/07/22 02:25:27;;;;;;;11.07;6.45;;;;;;;23.62;63.73;97476.38;10278965;28;20078;-52
2023/07/22 02:30:26;;;;;;;13.88;6.43;;;;;;;23.54;64.04;97483.06;10279765;28;20476;-49
2023/07/22 02:35:25;;;;;;;11.63;6.53;;;;;;;23.51;64.58;97488.53;10281022;28;20036;-52
2023/07/22 02:40:24;;;;;;;12.35;6.50;;;;;;;23.39;65.58;97493.53;10279823;28;20108;-52
2023/07/22 02:45:23;;;;;;;11.93;6.72;;;;;;;23.27;66.80;97494.25;10279211;28;20112;-51
2023/07/22 02:50:22;;;;;;;13.18;6.70;;;;;;;23.22;66.68;97488.38;10279871;28;20030;-52
2023/07/22 02:55:23;;;;;;;10.43;6.50;;;;;;;23.15;66.67;97493.16;10277920;28;20080;-52
2023/07/22 03:00:24;;;;;;;13.07;6.10;;;;;;;23.04;67.59;97500.84;10280645;28;20104;-52
2023/07/22 03:05:25;;;;;;;11.15;6.28;;;;;;;22.90;68.26;97490.16;10277888;28;20128;-52
2023/07/22 03:10:25;;;;;;;13.50;6.22;;;;;;;22.83;68.81;97486.16;10287200;28;20499;-53
2023/07/22 03:15:26;;;;;;;11.82;6.82;;;;;;;22.65;70.03;97483.53;10285149;28;20065;-52
2023/07/22 03:20:27;;;;;;;16.60;7.28;;;;;;;22.45;71.13;97481.09;10284884;28;20081;-51
2023/07/22 03:25:26;;;;;;;10.20;6.63;;;;;;;22.19;71.99;97472.75;10286984;28;20124;-53
2023/07/22 03:30:25;;;;;;;12.27;7.00;;;;;;;22.11;73.65;97480.25;10284917;28;20121;-53
2023/07/22 03:35:24;;;;;;;15.65;7.07;;;;;;;21.88;75.43;97490.19;10285529;28;20069;-51
2023/07/22 03:40:28;;;;;;;14.88;7.30;;;;;;;21.66;76.94;97500.09;10287821;28;20038;-53
2023/07/22 03:45:27;;;;;;;12.82;6.18;;;;;;;21.82;76.53;97489.63;10284715;28;20200;-52
2023/07/22 03:50:26;;;;;;;9.02;6.32;;;;;;;21.71;77.81;97508.66;10286137;28;20118;-49
2023/07/22 03:55:26;;;;;;;11.40;6.15;;;;;;;21.82;77.25;97522.19;10283478;28;20591;-50
2023/07/22 04:00:24;;;;;;;13.00;7.05;;;;;;;21.88;77.44;97536.88;10284675;28;20137;-50
2023/07/22 04:05:23;;;;;;;12.43;6.50;;;;;;;21.95;77.42;97543.56;10283402;28;20033;-52
2023/07/22 04:10:22;;;;;;;12.07;6.90;;;;;;;22.10;76.93;97557.81;10284802;28;20041;-49
2023/07/22 04:15:21;;;;;;;15.95;7.18;;;;;;;22.15;76.50;97566.34;10283987;28;20033;-51
2023/07/22 04:20:24;;;;;;;12.75;6.75;;;;;;;22.23;76.34;97563.34;10283518;28;20418;-53
2023/07/22 04:25:23;;;;;;;13.57;7.10;;;;;;;22.41;75.91;97575.59;10286830;28;20507;-53
2023/07/22 04:30:21;;;;;;;13.23;6.60;;;;;;;22.64;75.44;97574.38;10285562;28;20085;-48
2023/07/22 04:35:21;;;;;;;10.80;6.88;;;;;;;22.83;74.96;97573.44;10280833;28;20026;-52
2023/07/22 04:40:20;;;;;;;11.98;6.65;;;;;;;23.04;74.37;97585.53;10286053;28;20073;-52
2023/07/22 04:45:19;;;;;;;11.85;6.95;;;;;;;23.22;73.42;97581.88;10285928;28;20135;-51
2023/07/22 04:50:18;;;;;;;11.35;6.85;;;;;;;23.40;73.25;97589.75;10286024;28;20045;-52
2023/07/22 04:55:17;;;;;;;15.80;7.40;;;;;;;23.60;71.79;97584.22;10285336;28;20080;-52
2023/07/22 05:00:16;;;;;;;12.60;6.85;;;;;;;23.74;71.36;97579.94;10286229;28;20129;-52
2023/07/22 05:05:16;;;;;;;9.43;6.30;;;;;;;23.96;70.55;97583.06;10285680;28;20065;-52
2023/07/22 05:10:16;;;;;;;12.65;6.38;;;;;;;24.13;68.67;97583.88;10284831;28;20480;-52
2023/07/22 05:15:15;;;;;;;9.20;5.80;;;;;;;24.21;67.09;97579.00;10282778;28;20159;-52
2023/07/22 05:20:14;;;;;;;12.02;6.97;;;;;;;24.43;67.66;97607.75;10283277;28;20811;-54
2023/07/22 05:25:13;;;;;;;11.98;6.85;;;;;;;24.41;68.18;97594.59;10281693;28;20514;-52
2023/07/22 05:30:12;;;;;;;13.50;6.68;;;;;;;24.60;68.84;97620.00;10278933;28;20092;-52
2023/07/22 05:35:11;;;;;;;11.18;7.10;;;;;;;24.69;67.24;97624.75;10278866;28;20053;-53
2023/07/22 05:40:10;;;;;;;11.70;6.22;;;;;;;24.90;66.43;97626.13;10279469;28;20022;-53
2023/07/22 05:45:13;;;;;;;14.70;6.65;;;;;;;25.11;65.50;97621.31;10281714;28;20108;-50
2023/07/22 05:50:12;;;;;;;9.65;6.97;;;;;;;25.26;65.10;97616.84;10278301;28;20752;-53
2023/07/22 05:55:11;;;;;;;13.23;6.78;;;;;;;25.61;64.28;97624.41;10278897;28;20525;-48
2023/07/22 06:00:12;;;;;;;12.27;6.50;;;;;;;25.77;61.59;97613.63;10281356;28;20463;-53
2023/07/22 06:05:11;;;;;;;9.77;6.35;;;;;;;25.95;59.07;97641.69;10278556;28;20124;-53
2023/07/22 06:10:11;;;;;;;11.60;7.00;;;;;;;26.04;59.11;97648.22;10280189;28;20028;-53
2023/07/22 06:15:10;;;;;;;14.20;7.25;;;;;;;26.23;58.42;97657.66;10279461;28;20503;-54
2023/07/22 06:20:09;;;;;;;12.10;7.18;;;;;;;26.20;57.49;97665.84;10278174;28;20477;-51
2023/07/22 06:25:08;;;;;;;13.18;7.88;;;;;;;26.26;58.18;97663.63;10279530;28;20124;-51
2023/07/22 06:30:08;;;;;;;20.20;9.07;;;;;;;26.25;57.37;97669.03;10279138;28;20482;-51
2023/07/22 06:35:07;;;;;;;10.85;7.68;;;;;;;26.40;57.29;97667.19;10279530;28;20064;-50
2023/07/22 06:40:07;;;;;;;17.40;8.95;;;;;;;26.78;57.12;97677.91;10279470;28;20073;-51
2023/07/22 06:45:07;;;;;;;13.80;8.05;;;;;;;27.19;57.01;97679.56;10282685;28;20125;-52
2023/07/22 06:50:06;;;;;;;12.60;8.18;;;;;;;27.44;56.15;97669.81;10268819;28;20069;-51
2023/07/22 06:55:05;;;;;;;14.20;8.10;;;;;;;27.72;54.59;97658.06;10258073;28;20490;-49
2023/07/22 07:00:05;;;;;;;13.40;7.40;;;;;;;27.93;54.27;97653.81;10262207;28;20465;-51
2023/07/22 07:05:05;;;;;;;14.30;7.43;;;;;;;28.13;52.17;97660.41;10258176;28;20137;-52
2023/07/22 07:10:05;;;;;;;13.23;7.53;;;;;;;28.39;50.93;97661.13;10256043;28;20518;-52
2023/07/22 07:15:05;;;;;;;11.70;7.15;;;;;;;28.45;49.01;97649.13;10257812;28;20124;-52
2023/07/22 07:20:05;;;;;;;12.60;7.30;;;;;;;28.62;49.52;97631.84;10258886;28;20272;-51
2023/07/22 07:25:04;;;;;;;15.60;7.43;;;;;;;28.61;50.08;97606.94;10256943;28;20563;-50
2023/07/22 07:30:05;;;;;;;13.13;7.75;;;;;;;28.92;49.23;97636.63;10263031;28;20119;-51
2023/07/22 07:35:04;;;;;;;12.85;6.43;;;;;;;29.09;48.26;97632.69;10257901;28;20062;-51
2023/07/22 07:40:04;;;;;;;11.13;6.15;;;;;;;29.02;44.62;97608.25;10258985;28;20062;-52
2023/07/22 07:45:03;;;;;;;12.57;6.03;;;;;;;29.28;44.57;97608.03;10259399;28;20080;-51
2023/07/22 07:50:03;;;;;;;11.88;4.63;;;;;;;29.49;42.33;97602.81;10261765;28;20066;-52
2023/07/22 07:55:02;;;;;;;10.38;5.93;;;;;;;29.37;42.13;97599.28;10257953;28;20078;-52
2023/07/22 08:00:01;;;;;;;10.85;5.13;;;;;;;29.42;41.93;97599.75;10262436;28;20172;-51
2023/07/22 08:05:00;;;;;;;10.00;4.57;;;;;;;29.44;40.30;97597.81;10259403;28;20097;-52
2023/07/22 08:09:59;;;;;;;11.13;5.28;;;;;;;29.70;40.26;97582.34;10259995;28;20133;-52
2023/07/22 08:14:58;;;;;;;11.18;4.80;;;;;;;29.79;40.12;97559.34;10259536;28;20037;-52
2023/07/22 08:19:56;;;;;;;11.32;4.82;;;;;;;29.97;41.11;97565.00;10259924;28;20560;-52
2023/07/22 08:24:55;;;;;;;14.35;4.97;;;;;;;30.12;39.66;97560.22;10258625;28;20512;-51
2023/07/22 08:29:54;;;;;;;12.57;5.35;;;;;;;30.15;41.62;97543.88;10254920;28;20129;-51
2023/07/22 08:34:53;;;;;;;11.02;5.22;;;;;;;29.96;40.49;97541.91;10253147;28;20121;-50
2023/07/22 08:39:52;;;;;;;13.00;5.20;;;;;;;30.28;40.91;97530.28;10256196;28;20026;-51
2023/07/22 08:44:57;;;;;;;12.13;5.10;;;;;;;30.56;42.22;97528.81;10249735;28;20030;-51
2023/07/22 08:50:00;;;;;;;9.30;4.80;;;;;;;30.90;40.04;97515.16;10255002;28;20456;-52
2023/07/22 08:55:01;;;;;;;9.77;5.15;;;;;;;31.01;39.47;97496.34;10244705;28;20114;-52
2023/07/22 09:00:01;;;;;;;11.45;4.75;;;;;;;31.12;40.25;97485.53;10249655;28;20081;-50
2023/07/22 09:05:00;;;;;;;7.88;4.55;;;;;;;31.36;38.57;97484.31;10246240;28;20136;-52
2023/07/22 09:10:00;;;;;;;10.63;4.35;;;;;;;31.36;37.78;97455.66;10248066;28;20105;-51
2023/07/22 09:14:59;;;;;;;12.15;4.75;;;;;;;31.40;37.26;97453.50;10249007;28;20137;-52
2023/07/22 09:19:58;;;;;;;15.88;4.60;;;;;;;31.51;37.30;97453.41;10257086;28;20076;-51
2023/07/22 09:25:14;;;;;;;24.42;4.78;;;;;;;31.42;37.56;97451.53;10252403;28;20493;-50
2023/07/22 09:30:26;;;;;;;12.68;5.35;;;;;;;31.68;38.97;97445.66;10250263;28;20173;-50
2023/07/22 09:35:43;;;;;;;10.35;5.13;;;;;;;32.04;38.57;97438.75;10242224;28;20138;-52
2023/07/22 09:40:42;;;;;;;13.98;4.88;;;;;;;31.81;37.68;97451.59;10248054;28;20133;-51
2023/07/22 09:45:41;;;;;;;12.25;5.50;;;;;;;31.89;37.61;97453.56;10239589;28;20121;-52
2023/07/22 09:50:40;;;;;;;15.45;5.57;;;;;;;31.75;37.39;97452.16;10239101;28;20052;-52
2023/07/22 09:55:39;;;;;;;8.75;5.20;;;;;;;31.92;38.05;97438.03;10253484;28;20026;-52
2023/07/22 10:00:39;;;;;;;13.23;5.70;;;;;;;32.28;37.85;97432.88;10239874;28;20584;-52
2023/07/22 10:05:38;;;;;;;16.42;6.40;;;;;;;32.52;38.31;97435.03;10242786;28;20476;-50
2023/07/22 10:10:38;;;;;;;13.07;6.40;;;;;;;32.84;38.00;97428.44;10244194;28;20134;-52
2023/07/22 10:15:38;;;;;;;12.35;6.40;;;;;;;33.24;36.42;97414.63;10251572;28;20126;-50
2023/07/22 10:20:39;;;;;;;17.73;7.63;;;;;;;33.40;34.82;97419.31;10246111;28;20066;-53
2023/07/22 10:25:39;;;;;;;18.95;6.70;;;;;;;33.45;34.02;97417.00;10239835;28;20164;-52
2023/07/22 10:30:39;;;;;;;19.02;7.28;;;;;;;33.80;33.80;97419.88;10256076;28;20511;-52
2023/07/22 10:36:00;;;;;;;20.05;7.15;;;;;;;34.09;34.68;97412.31;10256129;28;20066;-52
2023/07/22 10:40:59;;;;;;;13.73;7.13;;;;;;;34.19;32.36;97397.94;10254948;28;20104;-51
2023/07/22 10:46:07;;;;;;;22.65;8.60;;;;;;;34.44;31.90;97407.00;10251833;28;20062;-50
2023/07/22 10:51:11;;;;;;;17.80;8.32;;;;;;;34.43;31.92;97408.03;10249195;28;20073;-52
2023/07/22 10:56:21;;;;;;;20.10;8.13;;;;;;;34.79;31.63;97411.41;10250937;28;20057;-50
2023/07/22 11:01:27;;;;;;;17.35;7.88;;;;;;;35.04;30.60;97412.34;10250686;28;20073;-52
2023/07/22 11:06:26;;;;;;;19.33;8.25;;;;;;;35.43;31.13;97413.59;10243306;28;20074;-50
2023/07/22 11:11:44;;;;;;;21.15;8.93;;;;;;;35.79;30.31;97402.53;10255315;28;20069;-53
2023/07/22 11:16:46;;;;;;;19.60;8.40;;;;;;;35.95;29.39;97400.66;10253615;28;20061;-52
2023/07/22 11:21:46;;;;;;;27.88;8.85;;;;;;;35.85;29.97;97396.44;10250049;28;20061;-51
2023/07/22 11:26:46;;;;;;;19.67;8.95;;;;;;;35.98;31.01;97403.00;10250608;28;20605;-52
2023/07/22 11:31:47;;;;;;;19.52;9.07;;;;;;;36.40;29.57;97390.28;10248608;28;20133;-52
2023/07/22 11:36:48;;;;;;;23.10;9.02;;;;;;;36.55;28.43;97402.09;10256305;28;20058;-51
2023/07/22 11:41:49;;;;;;;22.08;7.70;;;;;;;36.77;27.93;97396.94;10253482;28;20916;-50
2023/07/22 11:46:57;;;;;;;20.08;9.32;;;;;;;36.93;27.64;97379.78;10251450;28;20129;-52
2023/07/22 11:51:59;;;;;;;21.60;8.77;;;;;;;37.00;27.35;97376.22;10248367;28;20459;-51
2023/07/22 11:57:08;;;;;;;20.60;8.35;;;;;;;37.21;28.12;97380.13;10258034;28;20124;-53
2023/07/22 12:02:12;;;;;;;26.27;8.40;;;;;;;36.69;27.99;97380.75;10254894;28;20058;-51
2023/07/22 12:07:31;;;;;;;22.55;8.75;;;;;;;36.65;29.12;97368.59;10255486;28;20137;-52
2023/07/22 12:12:38;;;;;;;22.90;8.77;;;;;;;36.43;29.69;97372.88;10255495;28;20062;-51
2023/07/22 12:17:54;;;;;;;14.27;5.97;;;;;;;36.20;33.48;97356.56;10257470;28;20528;-52
2023/07/22 12:22:54;;;;;;;16.70;6.90;;;;;;;36.16;34.08;97362.34;10256462;28;20145;-52
2023/07/22 12:27:53;;;;;;;16.42;6.32;;;;;;;35.78;36.20;97371.13;10255841;28;20125;-52
2023/07/22 12:32:52;;;;;;;11.32;6.00;;;;;;;35.05;37.81;97367.34;10254042;28;20056;-52
2023/07/22 12:37:51;;;;;;;14.65;6.55;;;;;;;34.74;37.59;97378.72;10254234;28;20237;-51
2023/07/22 12:42:50;;;;;;;15.63;5.90;;;;;;;34.58;39.06;97365.97;10256921;28;20038;-51
2023/07/22 12:47:49;;;;;;;15.48;5.50;;;;;;;34.65;39.38;97374.28;10253240;28;20078;-51
2023/07/22 12:52:48;;;;;;;14.80;5.65;;;;;;;34.61;38.86;97362.16;10254281;28;20034;-52
2023/07/22 12:57:47;;;;;;;15.95;6.07;;;;;;;34.66;38.33;97378.66;10253315;28;20466;-53
2023/07/22 13:02:46;;;;;;;14.70;6.03;;;;;;;34.55;38.44;97376.25;10255407;28;20479;-53
2023/07/22 13:07:45;;;;;;;15.38;5.95;;;;;;;34.20;38.06;97375.41;10251516;28;20068;-51
2023/07/22 13:12:44;;;;;;;15.02;5.78;;;;;;;34.44;37.87;97369.28;10251368;28;20152;-53
2023/07/22 13:17:43;;;;;;;16.98;6.55;;;;;;;34.85;38.51;97370.31;10252218;28;20068;-53
2023/07/22 13:22:42;;;;;;;10.65;5.13;;;;;;;35.16;38.18;97374.31;10251973;28;20030;-51
2023/07/22 13:27:41;;;;;;;10.65;5.10;;;;;;;35.29;37.28;97388.13;10251822;28;20137;-51
2023/07/22 13:32:40;;;;;;;10.10;5.40;;;;;;;35.14;36.77;97390.66;10253230;28;20053;-52
2023/07/22 13:37:40;;;;;;;10.25;4.90;;;;;;;34.95;37.09;97386.34;10250045;28;20607;-52
2023/07/22 13:42:39;;;;;;;13.90;5.28;;;;;;;34.93;36.03;97381.13;10246813;28;20470;-52
2023/07/22 13:47:37;;;;;;;11.57;5.30;;;;;;;34.64;36.79;97376.16;10251421;28;20138;-52
2023/07/22 13:52:36;;;;;;;10.98;4.72;;;;;;;34.65;36.32;97390.47;10250958;28;20132;-49
2023/07/22 13:57:36;;;;;;;12.27;5.10;;;;;;;34.70;36.57;97374.66;10251482;28;20502;-50
2023/07/22 14:02:34;;;;;;;16.88;6.00;;;;;;;34.65;37.79;97358.13;10250794;28;20125;-51
2023/07/22 14:07:35;;;;;;;12.05;5.15;;;;;;;34.95;36.60;97364.78;10253377;28;20049;-50
2023/07/22 14:12:34;;;;;;;13.15;5.72;;;;;;;34.96;35.53;97362.94;10251215;28;20061;-50
2023/07/22 14:17:33;;;;;;;10.82;4.97;;;;;;;34.95;35.71;97361.25;10249483;28;20285;-51
2023/07/22 14:22:33;;;;;;;15.90;5.20;;;;;;;34.50;36.23;97374.88;10253024;28;20116;-51
2023/07/22 14:27:32;;;;;;;11.80;4.90;;;;;;;34.58;35.65;97382.16;10251455;28;20129;-51
2023/07/22 14:32:31;;;;;;;15.63;5.35;;;;;;;34.31;37.11;97380.53;10251106;28;20149;-52
2023/07/22 14:37:30;;;;;;;15.23;5.55;;;;;;;34.37;37.15;97387.09;10245288;28;20058;-52
2023/07/22 14:42:29;;;;;;;14.45;5.70;;;;;;;34.60;36.38;97390.91;10252223;28;20145;-52
2023/07/22 14:47:28;;;;;;;11.65;5.28;;;;;;;34.49;36.60;97394.72;10246987;28;20133;-52
2023/07/22 14:52:27;;;;;;;12.23;4.80;;;;;;;34.72;36.39;97395.03;10243910;28;20053;-52
2023/07/22 14:57:29;;;;;;;13.18;5.40;;;;;;;34.46;36.24;97386.97;10247943;28;20073;-52
2023/07/22 15:02:28;;;;;;;16.77;5.85;;;;;;;34.39;36.43;97394.03;10252690;28;20536;-51
2023/07/22 15:07:28;;;;;;;12.68;5.10;;;;;;;34.43;36.04;97379.22;10260027;28;20036;-52
2023/07/22 15:12:27;;;;;;;9.75;4.50;;;;;;;34.58;35.64;97395.63;10256020;28;20117;-51
2023/07/22 15:17:26;;;;;;;9.10;4.25;;;;;;;34.23;36.02;97393.94;10257403;28;20062;-51
2023/07/22 15:22:25;;;;;;;13.95;4.72;;;;;;;34.17;36.48;97399.94;10262356;28;20128;-50
2023/07/22 15:27:24;;;;;;;13.80;4.35;;;;;;;33.95;36.99;97406.69;10260952;28;20624;-51
2023/07/22 15:32:23;;;;;;;10.18;4.30;;;;;;;33.84;37.11;97402.38;10255061;28;20578;-52
2023/07/22 15:37:22;;;;;;;8.60;3.50;;;;;;;33.78;38.13;97416.50;10252396;28;20446;-52
2023/07/22 15:42:21;;;;;;;11.88;4.35;;;;;;;32.79;38.59;97377.81;10245860;28;20050;-52
2023/07/22 15:47:20;;;;;;;11.27;4.45;;;;;;;32.72;39.20;97411.69;10258602;28;20499;-52
2023/07/22 15:52:19;;;;;;;12.35;4.15;;;;;;;32.42;40.35;97397.50;10240471;28;20125;-52
2023/07/22 15:57:18;;;;;;;11.85;4.07;;;;;;;32.24;40.25;97410.00;10260041;28;20026;-52
2023/07/22 16:02:17;;;;;;;14.77;4.63;;;;;;;32.09;40.64;97422.19;10258040;28;20131;-52
2023/07/22 16:07:16;;;;;;;12.13;4.20;;;;;;;31.95;41.60;97400.16;10257962;28;20129;-52
2023/07/22 16:12:15;;;;;;;14.18;4.57;;;;;;;32.14;41.28;97418.06;10258994;28;20074;-53
2023/07/22 16:17:14;;;;;;;10.57;4.05;;;;;;;32.17;40.50;97415.09;10257238;28;20125;-55
2023/07/22 16:22:13;;;;;;;8.50;4.35;;;;;;;32.33;40.39;97403.75;10257675;28;20125;-51
2023/07/22 16:27:12;;;;;;;10.77;4.22;;;;;;;32.31;40.26;97426.38;10256345;28;20562;-50
2023/07/22 16:32:11;;;;;;;9.10;4.00;;;;;;;32.15;42.05;97416.22;10257355;28;20153;-53
2023/07/22 16:37:10;;;;;;;14.13;4.68;;;;;;;31.84;41.24;97407.53;10253421;28;20474;-52
2023/07/22 16:42:09;;;;;;;10.68;3.92;;;;;;;31.74;41.42;97426.31;10255338;28;20063;-52
2023/07/22 16:47:08;;;;;;;12.35;4.35;;;;;;;31.64;42.14;97417.41;10254687;28;20041;-53
2023/07/22 16:52:07;;;;;;;10.02;4.82;;;;;;;31.49;41.88;97409.75;10255003;28;20129;-53
2023/07/22 16:57:06;;;;;;;12.07;4.93;;;;;;;31.33;41.88;97430.94;10252850;28;20116;-49
2023/07/22 17:02:05;;;;;;;13.05;4.72;;;;;;;31.25;41.89;97447.72;10254628;28;20045;-53
2023/07/22 17:07:04;;;;;;;11.23;5.45;;;;;;;30.94;42.74;97463.00;10254265;28;20507;-53
2023/07/22 17:12:03;;;;;;;11.27;4.57;;;;;;;30.73;42.90;97460.41;10254381;28;20180;-53
2023/07/22 17:17:03;;;;;;;11.02;4.55;;;;;;;30.38;44.01;97474.16;10247224;28;20070;-52
2023/07/22 17:22:02;;;;;;;12.73;5.00;;;;;;;30.13;44.38;97484.28;10254066;28;20579;-52
2023/07/22 17:27:01;;;;;;;12.80;4.47;;;;;;;29.90;44.62;97476.38;10253811;28;20121;-52
2023/07/22 17:32:01;;;;;;;11.10;5.20;;;;;;;29.96;45.07;97476.84;10247679;28;20074;-52
2023/07/22 17:37:00;;;;;;;11.27;4.90;;;;;;;29.76;45.90;97508.75;10252362;28;20590;-52
2023/07/22 17:41:59;;;;;;;14.73;5.00;;;;;;;29.63;46.23;97506.25;10250930;28;20571;-52
2023/07/22 17:47:00;;;;;;;10.27;4.97;;;;;;;29.56;46.50;97506.91;10258968;28;20446;-50
2023/07/22 17:51:59;;;;;;;11.52;4.70;;;;;;;29.41;47.13;97492.94;10251211;28;20076;-52
2023/07/22 17:56:58;;;;;;;15.60;5.57;;;;;;;29.37;47.11;97497.72;10253555;28;20112;-52
2023/07/22 18:01:57;;;;;;;9.77;5.38;;;;;;;29.40;47.75;97510.81;10250404;28;20129;-52
2023/07/22 18:06:56;;;;;;;12.82;6.35;;;;;;;29.25;48.96;97520.03;10254090;28;20049;-52
2023/07/22 18:11:55;;;;;;;18.70;7.03;;;;;;;29.17;50.10;97533.19;10247823;28;20120;-52
2023/07/22 18:16:54;;;;;;;14.52;5.80;;;;;;;29.14;50.43;97533.44;10252808;28;20113;-52
2023/07/22 18:21:53;;;;;;;14.52;5.75;;;;;;;29.01;51.31;97525.56;10249748;28;20128;-52
2023/07/22 18:26:52;;;;;;;13.70;6.22;;;;;;;28.91;51.68;97548.63;10257230;28;20116;-52
2023/07/22 18:31:50;;;;;;;16.60;5.97;;;;;;;28.73;52.58;97557.09;10252412;28;20046;-51
2023/07/22 18:36:51;;;;;;;12.50;5.85;;;;;;;28.58;53.17;97532.44;10255384;28;20061;-51
2023/07/22 18:41:50;;;;;;;11.30;6.35;;;;;;;28.45;54.07;97537.00;10260354;28;20610;-52
2023/07/22 18:46:49;;;;;;;14.63;6.97;;;;;;;28.33;54.76;97553.97;10266113;28;20602;-52
2023/07/22 18:51:48;;;;;;;15.70;6.63;;;;;;;28.21;54.72;97553.94;10265920;28;20073;-51
2023/07/22 18:56:47;;;;;;;13.60;5.85;;;;;;;28.14;55.32;97518.03;10260621;28;20129;-52
2023/07/22 19:01:46;;;;;;;13.88;5.47;;;;;;;28.00;56.07;97504.88;10261624;28;20476;-49
2023/07/22 19:06:46;;;;;;;12.65;5.95;;;;;;;27.86;56.23;97523.72;10262886;28;20070;-51
2023/07/22 19:11:45;;;;;;;12.80;6.22;;;;;;;27.56;56.45;97495.72;10263469;28;20157;-52
2023/07/22 19:16:51;;;;;;;15.88;6.43;;;;;;;27.64;56.66;97514.69;10263134;28;20077;-50
2023/07/22 19:21:56;;;;;;;12.02;5.93;;;;;;;27.50;57.62;97504.19;10261590;28;20531;-50
2023/07/22 19:26:55;;;;;;;10.80;5.07;;;;;;;27.34;57.74;97507.94;10255957;28;20114;-52
2023/07/22 19:31:54;;;;;;;9.45;5.20;;;;;;;27.21;58.18;97491.13;10252363;28;20137;-52
2023/07/22 19:36:53;;;;;;;12.32;5.50;;;;;;;27.12;58.60;97489.13;10253155;28;20040;-52
2023/07/22 19:41:52;;;;;;;12.48;5.35;;;;;;;26.98;59.34;97487.50;10253914;28;20053;-52
2023/07/22 19:46:51;;;;;;;9.90;5.40;;;;;;;26.83;60.04;97476.13;10254356;28;20152;-50
2023/07/22 19:51:50;;;;;;;11.48;5.45;;;;;;;26.72;60.29;97468.88;10253488;28;20372;-49
2023/07/22 19:56:49;;;;;;;13.23;5.78;;;;;;;26.54;60.82;97475.50;10251581;28;20046;-52
2023/07/22 20:01:47;;;;;;;19.08;5.68;;;;;;;26.43;61.51;97483.38;10255156;28;20050;-52
2023/07/22 20:06:46;;;;;;;9.18;5.82;;;;;;;26.36;61.51;97489.13;10255848;28;20034;-50
2023/07/22 20:11:45;;;;;;;11.93;6.18;;;;;;;26.24;62.50;97494.47;10252316;28;20040;-49
2023/07/22 20:16:44;;;;;;;13.73;6.03;;;;;;;26.05;64.51;97494.84;10255641;28;20028;-50
2023/07/22 20:21:43;;;;;;;13.68;6.82;;;;;;;25.79;67.71;97509.88;10253436;28;20030;-52
2023/07/22 20:26:42;;;;;;;13.20;6.68;;;;;;;25.52;68.90;97513.38;10255359;28;20129;-50
2023/07/22 20:31:41;;;;;;;15.82;7.18;;;;;;;25.35;71.31;97533.06;10216033;28;1120782;-51
2023/07/22 20:36:40;;;;;;;12.27;6.28;;;;;;;25.26;71.19;97534.50;10254331;28;20567;-51
2023/07/22 20:41:39;;;;;;;18.45;6.40;;;;;;;25.18;70.96;97551.91;10249378;28;20544;-51
2023/07/22 20:46:38;;;;;;;11.68;6.53;;;;;;;25.23;70.33;97549.78;10253887;28;20497;-49
2023/07/22 20:51:37;;;;;;;15.23;6.40;;;;;;;25.20;70.30;97555.28;10252718;28;20142;-52
2023/07/22 20:56:38;;;;;;;12.82;7.03;;;;;;;25.26;70.43;97573.50;10254836;28;20130;-50
2023/07/22 21:01:36;;;;;;;16.67;6.90;;;;;;;25.15;71.16;97558.22;10254369;28;20066;-49
2023/07/22 21:06:36;;;;;;;16.35;6.70;;;;;;;25.10;71.93;97531.97;10254914;28;20482;-52
2023/07/22 21:11:35;;;;;;;14.95;6.93;;;;;;;25.03;72.33;97527.16;10256965;28;20133;-50
2023/07/22 21:16:34;;;;;;;14.73;6.90;;;;;;;24.99;71.74;97518.53;10252789;28;20374;-52
2023/07/22 21:21:33;;;;;;;11.82;5.38;;;;;;;24.91;71.41;97510.19;10253164;28;20026;-51
2023/07/22 21:26:34;;;;;;;14.57;6.20;;;;;;;24.89;70.74;97507.66;10249628;28;22004;-51
2023/07/22 21:31:33;;;;;;;12.63;6.28;;;;;;;24.93;70.34;97507.47;10252763;28;20137;-49
2023/07/22 21:36:32;;;;;;;15.70;6.70;;;;;;;24.39;76.11;97511.59;10253866;28;20290;-52
2023/07/22 21:41:31;;;;;;;21.30;7.90;;;;;;;24.00;78.20;97520.94;10252972;28;20493;-50
2023/07/22 21:46:30;;;;;;;14.27;9.35;;;;;;;23.76;79.44;97515.31;10253714;28;20555;-50
2023/07/22 21:51:29;;;;;;;20.33;10.65;;;;;;;23.83;78.65;97531.72;10251253;28;20467;-50
2023/07/22 21:56:28;;;;;;;12.82;8.15;;;;;;;23.71;79.55;97549.16;10251632;28;20438;-51
2023/07/22 22:01:27;;;;;;;15.70;7.55;;;;;;;23.68;79.86;97551.13;10252828;28;20034;-50
2023/07/22 22:06:26;;;;;;;13.50;7.57;;;;;;;23.74;79.34;97540.19;10253665;28;20027;-52
2023/07/22 22:11:25;;;;;;;14.77;7.20;;;;;;;23.69;79.13;97547.56;10254465;28;20052;-53
2023/07/22 22:16:24;;;;;;;12.27;6.97;;;;;;;23.51;82.52;97608.56;10250710;28;20449;-51
2023/07/22 22:21:23;;;;;;;15.80;7.57;;;;;;;23.23;83.19;97596.84;10253032;28;20411;-51
2023/07/22 22:26:22;;;;;;;15.15;8.25;;;;;;;23.06;83.81;97588.09;10252149;28;20121;-49
2023/07/22 22:31:21;;;;;;;14.35;7.25;;;;;;;23.11;83.45;97600.13;10255315;28;20096;-57
2023/07/22 22:36:20;;;;;;;17.15;7.68;;;;;;;23.14;82.87;97605.28;10251399;28;20120;-52
2023/07/22 22:41:19;;;;;;;14.02;6.75;;;;;;;23.08;83.96;97610.03;10254583;28;20395;-50
2023/07/22 22:46:18;;;;;;;17.83;9.63;;;;;;;23.08;83.49;97626.78;10254516;28;20030;-51
2023/07/22 22:51:16;;;;;;;15.45;7.55;;;;;;;23.08;83.19;97626.78;10248922;28;20127;-49
2023/07/22 22:56:15;;;;;;;13.55;7.43;;;;;;;23.14;83.14;97637.03;10253003;28;20029;-52